< < Back
Terminal Aerodrome Forecast


Current Version              Previous Versions:   1  2  3  4  5  6  7  8  9  

Terminal Aerodrome Forecast

693
FTUS42 KFFC 260540
TAFPDK
TAF
KPDK 260540Z 2606/2706 VRB03KT P6SM SCT100
     FM261600 22006KT P6SM SCT040 PROB30 2619/2623 4SM -TSRA BR
      BKN035CB
     FM270200 22005KT P6SM SCT250=

Latest METAR

977
SAUS70 KWBC 261700 RRD
MTRPDK
METAR KPDK 261653Z 23003KT 10SM FEW039 32/21 A3007 RMK AO2 SLP160
T03220206


USA.gov is the U.S. government's official web portal to all federal, state and local government web resources and services.